PWSweather.com
Personal Weather Stations
Station Observations
KTXPLANO60
Highlands Of Russell Park, Plano, TX 75025

Highlands Of Russell ParkPlano, TX 75025

Lat: 33.10431671, Lon: -96.75176239

Elevation: 761

Station Type: Davis Wireless VP2 Plus

http://www.planoweather.com

Latest ConditionsUpdated 1:10:09 PM CDT Tuesday, May 3, 2016
Currently Today's Max Today's Min Today's Average
Temperature 68.3°F20.2°C 68.4°F20.2°C 48.6°F9.2°C 55.5°F13.1°C
Dew Point 46.7°F8.2°C 50.4°F10.2°C 45.3°F7.4°C 47.2°F8.4°C
Winds 6.0 mph NE9.7 kmh NE 7.4 mph NNE11.9 kmh NNE - 2.3 mph 3.7 kmh
Wind Gusts 9.0 mph14.5 kmh 13.0 mph20.9 kmh - -
Humidity 46% 89% 45% 75%
Pressure 30.06 in1017.9 mb 30.10 in1019.3 mb 30.04 in1017.3 mb -
Hour Temp Dew Point Humidity Winds Wind Gusts Pressure Precip Precip Rate Daily Precip Total
01:10 PM 68.3°F20.2°C 46.7°F8.2°C 46% 6.0 mph NE9.7 kmh NE 9.0 mph14.5 kmh 30.06 in1017.9 mb - 0.00 in0.0 mm 0.00 in0.0 mm
01:00 PM 68.2°F20.1°C 46.6°F8.1°C 46% 7.2 mph NE11.6 kmh NE 7.0 mph11.3 kmh 30.07 in1018.3 mb - 0.00 in0.0 mm 0.00 in0.0 mm
12:50 PM 68.2°F20.1°C 47.2°F8.4°C 47% 7.4 mph NNE11.9 kmh NNE 8.0 mph12.9 kmh 30.07 in1018.3 mb - 0.00 in0.0 mm 0.00 in0.0 mm
12:40 PM 68.4°F20.2°C 46.2°F7.9°C 45% 3.5 mph NNE5.6 kmh NNE 9.0 mph14.5 kmh 30.08 in1018.6 mb - 0.00 in0.0 mm 0.00 in0.0 mm
12:30 PM 68.3°F20.2°C 47.8°F8.8°C 48% 6.3 mph NW10.1 kmh NW 13.0 mph20.9 kmh 30.09 in1019.0 mb - 0.00 in0.0 mm 0.00 in0.0 mm
12:20 PM 66.6°F19.2°C 45.7°F7.6°C 47% 5.2 mph N8.4 kmh N 8.0 mph12.9 kmh 30.08 in1018.6 mb - 0.00 in0.0 mm 0.00 in0.0 mm
12:10 PM 66.6°F19.2°C 46.3°F7.9°C 48% 6.2 mph N10.0 kmh N 9.0 mph14.5 kmh 30.09 in1019.0 mb - 0.00 in0.0 mm 0.00 in0.0 mm
12:00 PM 67.0°F19.4°C 46.7°F8.2°C 48% 5.2 mph N8.4 kmh N 7.0 mph11.3 kmh 30.09 in1019.0 mb - 0.00 in0.0 mm 0.00 in0.0 mm
11:50 AM 66.8°F19.3°C 47.1°F8.4°C 49% 5.6 mph N9.0 kmh N 9.0 mph14.5 kmh 30.09 in1019.0 mb - 0.00 in0.0 mm 0.00 in0.0 mm
11:40 AM 65.6°F18.7°C 49.0°F9.4°C 55% 2.3 mph N3.7 kmh N 4.0 mph6.4 kmh 30.09 in1019.0 mb - 0.00 in0.0 mm 0.00 in0.0 mm
11:30 AM 64.2°F17.9°C 48.2°F9.0°C 56% 2.5 mph N4.0 kmh N 7.0 mph11.3 kmh 30.09 in1019.0 mb - 0.00 in0.0 mm 0.00 in0.0 mm
11:20 AM 64.9°F18.3°C 48.8°F9.3°C 56% 3.5 mph N5.6 kmh N 6.0 mph9.7 kmh 30.10 in1019.3 mb - 0.00 in0.0 mm 0.00 in0.0 mm
11:10 AM 64.6°F18.1°C 48.1°F8.9°C 55% 2.2 mph NNW3.5 kmh NNW 5.0 mph8.0 kmh 30.10 in1019.3 mb - 0.00 in0.0 mm 0.00 in0.0 mm
11:00 AM 64.4°F18.0°C 47.4°F8.6°C 54% 2.8 mph NNW4.5 kmh NNW 6.0 mph9.7 kmh 30.10 in1019.3 mb - 0.00 in0.0 mm 0.00 in0.0 mm
10:50 AM 64.3°F17.9°C 49.2°F9.6°C 58% 2.3 mph NNW3.7 kmh NNW 4.0 mph6.4 kmh 30.10 in1019.3 mb - 0.00 in0.0 mm 0.00 in0.0 mm
10:40 AM 64.3°F17.9°C 50.1°F10.1°C 60% 3.7 mph NNW6.0 kmh NNW 5.0 mph8.0 kmh 30.10 in1019.3 mb - 0.00 in0.0 mm 0.00 in0.0 mm
10:30 AM 64.0°F17.8°C 49.4°F9.7°C 59% 3.5 mph NNW5.6 kmh NNW 4.0 mph6.4 kmh 30.09 in1019.0 mb - 0.00 in0.0 mm 0.00 in0.0 mm
10:20 AM 63.0°F17.2°C 49.8°F9.9°C 62% 5.0 mph NNW8.0 kmh NNW 7.0 mph11.3 kmh 30.10 in1019.3 mb - 0.00 in0.0 mm 0.00 in0.0 mm
10:10 AM 62.8°F17.1°C 49.1°F9.5°C 61% 2.9 mph NNW4.7 kmh NNW 7.0 mph11.3 kmh 30.10 in1019.3 mb - 0.00 in0.0 mm 0.00 in0.0 mm
10:00 AM 62.8°F17.1°C 49.6°F9.8°C 62% 3.4 mph NW5.5 kmh NW 8.0 mph12.9 kmh 30.10 in1019.3 mb - 0.00 in0.0 mm 0.00 in0.0 mm
09:50 AM 63.1°F17.3°C 49.4°F9.7°C 61% 6.2 mph NW10.0 kmh NW 8.0 mph12.9 kmh 30.10 in1019.3 mb - 0.00 in0.0 mm 0.00 in0.0 mm
09:40 AM 62.6°F17.0°C 50.3°F10.2°C 64% 1.6 mph NNW2.6 kmh NNW 4.0 mph6.4 kmh 30.10 in1019.3 mb - 0.00 in0.0 mm 0.00 in0.0 mm
09:30 AM 62.0°F16.7°C 50.1°F10.1°C 65% 2.6 mph NNW4.2 kmh NNW 6.0 mph9.7 kmh 30.10 in1019.3 mb - 0.00 in0.0 mm 0.00 in0.0 mm
09:20 AM 61.3°F16.3°C 49.8°F9.9°C 66% 2.8 mph NNW4.5 kmh NNW 6.0 mph9.7 kmh 30.09 in1019.0 mb - 0.00 in0.0 mm 0.00 in0.0 mm
09:10 AM 61.0°F16.1°C 49.9°F9.9°C 67% 2.6 mph NNW4.2 kmh NNW 4.0 mph6.4 kmh 30.09 in1019.0 mb - 0.00 in0.0 mm 0.00 in0.0 mm
09:00 AM 60.7°F15.9°C 49.7°F9.8°C 67% 4.5 mph NNW7.2 kmh NNW 6.0 mph9.7 kmh 30.10 in1019.3 mb - 0.00 in0.0 mm 0.00 in0.0 mm
08:50 AM 60.2°F15.7°C 50.4°F10.2°C 70% 1.5 mph N2.4 kmh N 2.0 mph3.2 kmh 30.10 in1019.3 mb - 0.00 in0.0 mm 0.00 in0.0 mm
08:40 AM 59.4°F15.2°C 50.4°F10.2°C 72% 3.2 mph N5.1 kmh N 6.0 mph9.7 kmh 30.09 in1019.0 mb - 0.00 in0.0 mm 0.00 in0.0 mm
08:30 AM 58.3°F14.6°C 50.0°F10.0°C 74% 0.8 mph N1.3 kmh N 1.0 mph1.6 kmh 30.09 in1019.0 mb - 0.00 in0.0 mm 0.00 in0.0 mm
08:20 AM 57.5°F14.2°C 49.6°F9.8°C 75% 2.9 mph N4.7 kmh N 6.0 mph9.7 kmh 30.08 in1018.6 mb - 0.00 in0.0 mm 0.00 in0.0 mm
08:10 AM 56.7°F13.7°C 49.2°F9.6°C 76% 0.6 mph N1.0 kmh N 4.0 mph6.4 kmh 30.08 in1018.6 mb - 0.00 in0.0 mm 0.00 in0.0 mm
08:00 AM 55.9°F13.3°C 49.1°F9.5°C 78% 4.6 mph N7.4 kmh N 6.0 mph9.7 kmh 30.08 in1018.6 mb - 0.00 in0.0 mm 0.00 in0.0 mm
07:50 AM 54.4°F12.4°C 48.7°F9.3°C 81% 1.7 mph N2.7 kmh N 3.0 mph4.8 kmh 30.08 in1018.6 mb - 0.00 in0.0 mm 0.00 in0.0 mm
07:40 AM 53.3°F11.8°C 48.2°F9.0°C 83% 1.7 mph N2.7 kmh N 3.0 mph4.8 kmh 30.08 in1018.6 mb - 0.00 in0.0 mm 0.00 in0.0 mm
07:30 AM 52.1°F11.2°C 47.8°F8.8°C 85% 1.5 mph N2.4 kmh N 3.0 mph4.8 kmh 30.07 in1018.3 mb - 0.00 in0.0 mm 0.00 in0.0 mm
07:20 AM 51.0°F10.6°C 47.3°F8.5°C 87% 2.1 mph N3.4 kmh N 3.0 mph4.8 kmh 30.07 in1018.3 mb - 0.00 in0.0 mm 0.00 in0.0 mm
07:10 AM 49.9°F9.9°C 46.5°F8.1°C 88% 1.2 mph N1.9 kmh N 3.0 mph4.8 kmh 30.07 in1018.3 mb - 0.00 in0.0 mm 0.00 in0.0 mm
07:00 AM 49.2°F9.6°C 45.8°F7.7°C 88% 1.4 mph NNE2.3 kmh NNE 3.0 mph4.8 kmh 30.06 in1017.9 mb - 0.00 in0.0 mm 0.00 in0.0 mm
06:50 AM 49.0°F9.4°C 45.6°F7.6°C 88% 1.9 mph NNE3.1 kmh NNE 3.0 mph4.8 kmh 30.06 in1017.9 mb - 0.00 in0.0 mm 0.00 in0.0 mm
06:40 AM 48.9°F9.4°C 45.5°F7.5°C 88% 1.4 mph NNE2.3 kmh NNE 3.0 mph4.8 kmh 30.06 in1017.9 mb - 0.00 in0.0 mm 0.00 in0.0 mm
06:30 AM 48.8°F9.3°C 45.4°F7.4°C 88% 2.0 mph NNE3.2 kmh NNE 3.0 mph4.8 kmh 30.05 in1017.6 mb - 0.00 in0.0 mm 0.00 in0.0 mm
06:20 AM 48.8°F9.3°C 45.4°F7.4°C 88% 1.7 mph NNE2.7 kmh NNE 3.0 mph4.8 kmh 30.05 in1017.6 mb - 0.00 in0.0 mm 0.00 in0.0 mm
06:10 AM 48.7°F9.3°C 45.6°F7.6°C 89% 1.9 mph NNE3.1 kmh NNE 3.0 mph4.8 kmh 30.05 in1017.6 mb - 0.00 in0.0 mm 0.00 in0.0 mm
06:00 AM 48.6°F9.2°C 45.3°F7.4°C 88% 1.3 mph NNE2.1 kmh NNE 3.0 mph4.8 kmh 30.05 in1017.6 mb - 0.00 in0.0 mm 0.00 in0.0 mm
05:50 AM 48.7°F9.3°C 45.6°F7.6°C 89% 1.2 mph NNE1.9 kmh NNE 2.0 mph3.2 kmh 30.05 in1017.6 mb - 0.00 in0.0 mm 0.00 in0.0 mm
05:40 AM 48.8°F9.3°C 45.7°F7.6°C 89% 1.4 mph NNE2.3 kmh NNE 2.0 mph3.2 kmh 30.04 in1017.3 mb - 0.00 in0.0 mm 0.00 in0.0 mm
05:30 AM 49.0°F9.4°C 45.9°F7.7°C 89% 1.3 mph NNE2.1 kmh NNE 2.0 mph3.2 kmh 30.04 in1017.3 mb - 0.00 in0.0 mm 0.00 in0.0 mm
05:20 AM 49.2°F9.6°C 46.1°F7.8°C 89% 1.3 mph NNE2.1 kmh NNE 2.0 mph3.2 kmh 30.04 in1017.3 mb - 0.00 in0.0 mm 0.00 in0.0 mm
05:10 AM 49.3°F9.6°C 46.2°F7.9°C 89% 1.6 mph NNE2.6 kmh NNE 3.0 mph4.8 kmh 30.04 in1017.3 mb - 0.00 in0.0 mm 0.00 in0.0 mm
05:00 AM 49.3°F9.6°C 45.9°F7.7°C 88% 1.9 mph NNE3.1 kmh NNE 3.0 mph4.8 kmh 30.04 in1017.3 mb - 0.00 in0.0 mm 0.00 in0.0 mm
04:50 AM 49.4°F9.7°C 45.7°F7.6°C 87% 2.0 mph NE3.2 kmh NE 3.0 mph4.8 kmh 30.04 in1017.3 mb - 0.00 in0.0 mm 0.00 in0.0 mm
04:40 AM 49.5°F9.7°C 45.5°F7.5°C 86% 1.5 mph NE2.4 kmh NE 2.0 mph3.2 kmh 30.04 in1017.3 mb - 0.00 in0.0 mm 0.00 in0.0 mm
04:30 AM 49.6°F9.8°C 45.6°F7.6°C 86% 1.6 mph NE2.6 kmh NE 2.0 mph3.2 kmh 30.04 in1017.3 mb - 0.00 in0.0 mm 0.00 in0.0 mm
04:20 AM 49.7°F9.8°C 45.4°F7.4°C 85% 1.8 mph NE2.9 kmh NE 2.0 mph3.2 kmh 30.04 in1017.3 mb - 0.00 in0.0 mm 0.00 in0.0 mm
04:10 AM 49.8°F9.9°C 45.5°F7.5°C 85% 2.1 mph NE3.4 kmh NE 3.0 mph4.8 kmh 30.04 in1017.3 mb - 0.00 in0.0 mm 0.00 in0.0 mm
04:00 AM 49.9°F9.9°C 45.6°F7.6°C 85% 1.8 mph NE2.9 kmh NE 3.0 mph4.8 kmh 30.04 in1017.3 mb - 0.00 in0.0 mm 0.00 in0.0 mm
03:50 AM 50.0°F10.0°C 45.3°F7.4°C 84% 1.6 mph NE2.6 kmh NE 2.0 mph3.2 kmh 30.04 in1017.3 mb - 0.00 in0.0 mm 0.00 in0.0 mm
03:40 AM 50.0°F10.0°C 45.4°F7.4°C 84% 1.8 mph NE2.9 kmh NE 3.0 mph4.8 kmh 30.04 in1017.3 mb - 0.00 in0.0 mm 0.00 in0.0 mm
03:30 AM 50.1°F10.1°C 45.5°F7.5°C 84% 1.2 mph NE1.9 kmh NE 2.0 mph3.2 kmh 30.04 in1017.3 mb - 0.00 in0.0 mm 0.00 in0.0 mm
03:20 AM 50.1°F10.1°C 45.8°F7.7°C 85% 1.6 mph NE2.6 kmh NE 2.0 mph3.2 kmh 30.05 in1017.6 mb - 0.00 in0.0 mm 0.00 in0.0 mm
03:10 AM 50.1°F10.1°C 45.8°F7.7°C 85% 1.2 mph NE1.9 kmh NE 2.0 mph3.2 kmh 30.04 in1017.3 mb - 0.00 in0.0 mm 0.00 in0.0 mm
03:00 AM 50.1°F10.1°C 45.8°F7.7°C 85% 2.0 mph NE3.2 kmh NE 3.0 mph4.8 kmh 30.05 in1017.6 mb - 0.00 in0.0 mm 0.00 in0.0 mm
02:50 AM 50.0°F10.0°C 46.0°F7.8°C 86% 1.6 mph NE2.6 kmh NE 2.0 mph3.2 kmh 30.05 in1017.6 mb - 0.00 in0.0 mm 0.00 in0.0 mm
02:40 AM 50.0°F10.0°C 46.0°F7.8°C 86% 1.3 mph NE2.1 kmh NE 2.0 mph3.2 kmh 30.05 in1017.6 mb - 0.00 in0.0 mm 0.00 in0.0 mm
02:30 AM 50.1°F10.1°C 46.1°F7.8°C 86% 2.3 mph NE3.7 kmh NE 3.0 mph4.8 kmh 30.05 in1017.6 mb - 0.00 in0.0 mm 0.00 in0.0 mm
02:20 AM 50.2°F10.1°C 46.2°F7.9°C 86% 1.6 mph NE2.6 kmh NE 3.0 mph4.8 kmh 30.05 in1017.6 mb - 0.00 in0.0 mm 0.00 in0.0 mm
02:10 AM 50.3°F10.2°C 46.3°F7.9°C 86% 1.3 mph NE2.1 kmh NE 2.0 mph3.2 kmh 30.05 in1017.6 mb - 0.00 in0.0 mm 0.00 in0.0 mm
02:00 AM 50.5°F10.3°C 46.5°F8.1°C 86% 1.1 mph NE1.8 kmh NE 2.0 mph3.2 kmh 30.05 in1017.6 mb - 0.00 in0.0 mm 0.00 in0.0 mm
01:50 AM 50.6°F10.3°C 46.3°F7.9°C 85% 0.9 mph NE1.4 kmh NE 2.0 mph3.2 kmh 30.06 in1017.9 mb - 0.00 in0.0 mm 0.00 in0.0 mm
01:40 AM 50.7°F10.4°C 46.7°F8.2°C 86% 1.1 mph NE1.8 kmh NE 2.0 mph3.2 kmh 30.06 in1017.9 mb - 0.00 in0.0 mm 0.00 in0.0 mm
01:30 AM 50.7°F10.4°C 46.7°F8.2°C 86% 1.5 mph NE2.4 kmh NE 2.0 mph3.2 kmh 30.06 in1017.9 mb - 0.00 in0.0 mm 0.00 in0.0 mm
01:20 AM 50.7°F10.4°C 46.4°F8.0°C 85% 1.5 mph NE2.4 kmh NE 2.0 mph3.2 kmh 30.07 in1018.3 mb - 0.00 in0.0 mm 0.00 in0.0 mm
01:10 AM 50.6°F10.3°C 46.3°F7.9°C 85% Calm Calm -- 30.07 in1018.3 mb - 0.00 in0.0 mm 0.00 in0.0 mm
01:00 AM 50.6°F10.3°C 46.6°F8.1°C 86% 0.3 mph NE0.5 kmh NE 1.0 mph1.6 kmh 30.07 in1018.3 mb - 0.00 in0.0 mm 0.00 in0.0 mm
12:50 AM 50.8°F10.4°C 46.8°F8.2°C 86% 0.2 mph NE0.3 kmh NE 1.0 mph1.6 kmh 30.07 in1018.3 mb - 0.00 in0.0 mm 0.00 in0.0 mm
12:40 AM 50.8°F10.4°C 46.8°F8.2°C 86% 0.9 mph NE1.4 kmh NE 2.0 mph3.2 kmh 30.07 in1018.3 mb - 0.00 in0.0 mm 0.00 in0.0 mm
12:30 AM 51.0°F10.6°C 46.9°F8.3°C 86% Calm Calm -- 30.07 in1018.3 mb - 0.00 in0.0 mm 0.00 in0.0 mm
12:20 AM 51.0°F10.6°C 47.0°F8.3°C 86% Calm Calm -- 30.07 in1018.3 mb - 0.00 in0.0 mm 0.00 in0.0 mm
12:10 AM 50.9°F10.5°C 46.9°F8.3°C 86% 0.3 mph NE0.5 kmh NE 1.0 mph1.6 kmh 30.07 in1018.3 mb - 0.00 in0.0 mm 0.00 in0.0 mm
12:00 AM 51.0°F10.6°C 47.0°F8.3°C 86% Calm Calm -- 30.07 in1018.3 mb - 0.00 in0.0 mm 0.00 in0.0 mm